createdAt,value
2022-12-08T00:00:52.933Z,99269.63
2022-12-08T00:03:20.784Z,99263.81
2022-12-08T00:06:07.400Z,99263.28
2022-12-08T00:08:53.719Z,99257.44
2022-12-08T00:11:21.287Z,99254.56
2022-12-08T00:13:48.766Z,99245.41
2022-12-08T00:16:16.741Z,99246.13
2022-12-08T00:18:44.274Z,99241.03
2022-12-08T00:21:11.745Z,99230.84
2022-12-08T00:23:40.540Z,99233.59
2022-12-08T00:26:08.802Z,99224.19
2022-12-08T00:28:36.523Z,99221.88
2022-12-08T00:31:09.149Z,99218.78
2022-12-08T00:33:36.652Z,99222.94
2022-12-08T00:36:07.826Z,99221.88
2022-12-08T00:38:35.820Z,99220.59
2022-12-08T00:41:04.740Z,99218.47
2022-12-08T00:43:32.248Z,99215.63
2022-12-08T00:45:59.757Z,99215.19
2022-12-08T00:48:27.201Z,99218.75
2022-12-08T00:50:54.706Z,99220.91
2022-12-08T00:53:22.208Z,99209.63
2022-12-08T00:55:52.401Z,99216.28
2022-12-08T00:58:21.256Z,99212.75
2022-12-08T01:00:48.829Z,99218.53
2022-12-08T01:03:16.563Z,99211.72
2022-12-08T01:05:44.415Z,99205.00
2022-12-08T01:08:11.919Z,99204.72
2022-12-08T01:10:40.392Z,99203.38
2022-12-08T01:13:08.104Z,99203.59
2022-12-08T01:15:37.939Z,99200.00
2022-12-08T01:18:05.524Z,99198.31
2022-12-08T01:20:33.197Z,99195.97
2022-12-08T01:23:00.721Z,99195.97
2022-12-08T01:25:28.248Z,99190.38
2022-12-08T01:27:55.717Z,99187.06
2022-12-08T01:30:23.297Z,99187.16
2022-12-08T01:32:52.092Z,99188.72
2022-12-08T01:35:19.598Z,99187.38
2022-12-08T01:37:47.264Z,99189.59
2022-12-08T01:40:14.818Z,99188.81
2022-12-08T01:42:42.379Z,99190.75
2022-12-08T01:45:15.223Z,99198.69
2022-12-08T01:47:46.705Z,99194.47
2022-12-08T01:50:18.133Z,99191.53
2022-12-08T01:52:49.968Z,99192.22
2022-12-08T01:55:21.076Z,99192.00
2022-12-08T01:57:52.040Z,99187.28
2022-12-08T02:00:21.552Z,99191.16
2022-12-08T02:02:55.278Z,99181.22
2022-12-08T02:05:28.151Z,99174.75
2022-12-08T02:07:58.028Z,99162.91
2022-12-08T02:10:29.933Z,99164.19
2022-12-08T02:12:59.376Z,99168.66
2022-12-08T02:15:35.447Z,99165.94
2022-12-08T02:18:16.813Z,99171.50
2022-12-08T02:20:54.534Z,99165.75
2022-12-08T02:23:33.192Z,99167.75
2022-12-08T02:26:26.984Z,99159.63
2022-12-08T02:29:20.384Z,99155.78
2022-12-08T02:32:02.883Z,99151.25
2022-12-08T02:34:35.228Z,99149.47
2022-12-08T02:37:10.059Z,99157.34
2022-12-08T02:39:52.195Z,99148.28
2022-12-08T02:42:28.633Z,99138.47
2022-12-08T02:45:01.029Z,99139.06
2022-12-08T02:47:31.288Z,99131.22
2022-12-08T02:50:00.113Z,99137.78
2022-12-08T02:52:45.415Z,99134.34
2022-12-08T02:55:21.401Z,99129.06
2022-12-08T02:58:07.168Z,99125.75
2022-12-08T03:00:45.348Z,99120.13
2022-12-08T03:03:22.662Z,99119.69
2022-12-08T03:06:05.568Z,99119.09
2022-12-08T03:08:38.443Z,99105.44
2022-12-08T03:11:12.808Z,99105.00
2022-12-08T03:13:43.247Z,99104.22
2022-12-08T03:16:20.816Z,99101.44
2022-12-08T03:18:53.850Z,99097.19
2022-12-08T03:21:23.825Z,99096.69
2022-12-08T03:23:55.544Z,99100.06
2022-12-08T03:26:29.622Z,99087.19
2022-12-08T03:28:58.104Z,99078.78
2022-12-08T03:31:27.684Z,99082.78
2022-12-08T03:33:57.403Z,99072.19
2022-12-08T03:36:26.815Z,99072.56
2022-12-08T03:38:55.409Z,99066.94
2022-12-08T03:41:23.876Z,99061.09
2022-12-08T03:43:54.768Z,99063.41
2022-12-08T03:48:51.266Z,99061.72
2022-12-08T03:51:20.065Z,99053.19
2022-12-08T03:53:49.368Z,99054.81
2022-12-08T03:56:23.131Z,99044.75
2022-12-08T03:58:51.019Z,99039.31
2022-12-08T04:01:18.747Z,99044.69
2022-12-08T04:03:46.248Z,99047.00
2022-12-08T04:06:15.383Z,99039.81
2022-12-08T04:08:43.825Z,99037.19
2022-12-08T04:11:13.340Z,99034.84
2022-12-08T04:13:42.142Z,99035.03
2022-12-08T04:16:10.767Z,99036.84
2022-12-08T04:18:38.827Z,99030.75
2022-12-08T04:21:06.706Z,99033.44
2022-12-08T04:23:34.205Z,99033.59
2022-12-08T04:26:01.680Z,99030.97
2022-12-08T04:28:30.486Z,99022.38
2022-12-08T04:30:58.069Z,99016.09
2022-12-08T04:33:25.712Z,99017.09
2022-12-08T04:35:53.202Z,99020.97
2022-12-08T04:38:20.758Z,99014.75
2022-12-08T04:40:48.403Z,99020.78
2022-12-08T04:43:15.901Z,99013.94
2022-12-08T04:45:44.718Z,99017.94
2022-12-08T04:48:13.363Z,99011.06
2022-12-08T04:50:42.472Z,99013.34
2022-12-08T04:53:10.402Z,99017.09
2022-12-08T04:55:39.316Z,99011.28
2022-12-08T04:58:07.048Z,99014.25
2022-12-08T05:00:34.752Z,99013.03
2022-12-08T05:03:03.638Z,99007.84
2022-12-08T05:05:31.227Z,99005.84
2022-12-08T05:07:58.707Z,99006.44
2022-12-08T05:10:26.289Z,99001.22
2022-12-08T05:12:53.794Z,98995.69
2022-12-08T05:15:21.319Z,98994.41
2022-12-08T05:17:48.776Z,98996.56
2022-12-08T05:20:18.075Z,98990.00
2022-12-08T05:22:45.549Z,98994.84
2022-12-08T05:25:13.240Z,98993.31
2022-12-08T05:27:40.719Z,98984.81
2022-12-08T05:30:08.727Z,98993.13
2022-12-08T05:32:36.208Z,98992.25
2022-12-08T05:35:03.837Z,98995.53
2022-12-08T05:37:32.668Z,98983.59
2022-12-08T05:40:00.719Z,98983.63
2022-12-08T05:42:28.471Z,98984.53
2022-12-08T05:44:55.952Z,98988.28
2022-12-08T05:47:23.681Z,98988.38
2022-12-08T05:49:51.140Z,98982.50
2022-12-08T05:52:18.619Z,98980.91
2022-12-08T05:54:47.423Z,98973.53
2022-12-08T05:57:14.850Z,98971.50
2022-12-08T05:59:42.346Z,98974.25
2022-12-08T06:02:10.289Z,98963.63
2022-12-08T06:04:38.951Z,98971.69
2022-12-08T06:07:06.425Z,98963.19
2022-12-08T06:09:34.136Z,98960.69
2022-12-08T06:12:03.008Z,98966.56
2022-12-08T06:14:31.550Z,98958.41
2022-12-08T06:16:59.259Z,98957.97
2022-12-08T06:19:27.773Z,98951.28
2022-12-08T06:21:55.254Z,98956.41
2022-12-08T06:24:22.948Z,98953.00
2022-12-08T06:26:50.452Z,98956.75
2022-12-08T06:29:19.373Z,98950.13
2022-12-08T06:31:46.971Z,98952.28
2022-12-08T06:34:14.574Z,98952.59
2022-12-08T06:36:42.065Z,98952.78
2022-12-08T06:39:10.361Z,98951.19
2022-12-08T06:41:58.184Z,98961.28
2022-12-08T06:44:27.011Z,98953.28
2022-12-08T06:46:54.496Z,98961.41
2022-12-08T06:49:22.128Z,98953.81
2022-12-08T06:51:49.613Z,98955.88
2022-12-08T06:54:17.339Z,98955.59
2022-12-08T06:56:44.839Z,98949.81
2022-12-08T06:59:12.355Z,98957.97
2022-12-08T07:01:41.218Z,98952.69
2022-12-08T07:04:08.718Z,98953.94
2022-12-08T07:06:36.232Z,98962.91
2022-12-08T07:09:03.974Z,98957.22
2022-12-08T07:11:31.464Z,98958.69
2022-12-08T07:13:59.180Z,98959.22
2022-12-08T07:16:27.878Z,98961.25
2022-12-08T07:18:56.815Z,98965.56
2022-12-08T07:21:24.347Z,98975.88
2022-12-08T07:23:57.367Z,98975.00
2022-12-08T07:26:25.542Z,98975.22
2022-12-08T07:28:53.419Z,98969.25
2022-12-08T07:31:22.910Z,98973.56
2022-12-08T07:33:51.121Z,98974.38
2022-12-08T07:36:20.032Z,98974.25
2022-12-08T07:38:48.217Z,98971.63
2022-12-08T07:41:19.030Z,98976.78
2022-12-08T07:43:46.832Z,98977.25
2022-12-08T07:46:15.749Z,98966.94
2022-12-08T07:48:43.752Z,98971.56
2022-12-08T07:51:12.723Z,98968.22
2022-12-08T07:53:44.535Z,98974.69
2022-12-08T07:56:14.657Z,98971.97
2022-12-08T07:58:42.705Z,98973.78
2022-12-08T08:01:23.955Z,98971.72
2022-12-08T08:03:51.571Z,98971.63
2022-12-08T08:06:19.071Z,98977.50
2022-12-08T08:08:48.218Z,98972.66
2022-12-08T08:11:20.797Z,98971.09
2022-12-08T08:13:49.553Z,98966.19
2022-12-08T08:16:17.545Z,98969.34
2022-12-08T08:18:48.001Z,98979.25
2022-12-08T08:21:43.835Z,98972.06
2022-12-08T08:24:05.173Z,98978.44
2022-12-08T08:26:32.665Z,98973.97
2022-12-08T08:29:00.377Z,98974.59
2022-12-08T08:31:28.243Z,98981.38
2022-12-08T08:33:57.487Z,98973.94
2022-12-08T08:36:24.998Z,98979.44
2022-12-08T08:38:53.299Z,98984.19
2022-12-08T08:41:24.656Z,98981.47
2022-12-08T08:43:52.459Z,98977.69
2022-12-08T08:46:19.981Z,98975.22
2022-12-08T08:48:47.478Z,98984.34
2022-12-08T08:51:16.377Z,98985.66
2022-12-08T08:53:44.243Z,98985.16
2022-12-08T08:56:12.937Z,98984.25
2022-12-08T08:58:42.190Z,98981.16
2022-12-08T09:01:10.138Z,98983.16
2022-12-08T09:03:37.687Z,98976.16
2022-12-08T09:06:05.490Z,98981.50
2022-12-08T09:08:33.116Z,98971.59
2022-12-08T09:11:00.660Z,98973.63
2022-12-08T09:13:28.417Z,98974.44
2022-12-08T09:15:57.345Z,98976.22
2022-12-08T09:18:24.834Z,98985.19
2022-12-08T09:20:52.371Z,98985.78
2022-12-08T09:23:19.986Z,98982.09
2022-12-08T09:25:47.801Z,98989.03
2022-12-08T09:28:15.989Z,98988.50
2022-12-08T09:30:43.646Z,98988.38
2022-12-08T09:33:12.464Z,98982.72
2022-12-08T09:35:39.915Z,98982.78
2022-12-08T09:38:07.391Z,98983.06
2022-12-08T09:40:43.599Z,98983.53
2022-12-08T09:43:26.159Z,98988.47
2022-12-08T09:45:54.769Z,98988.69
2022-12-08T09:48:26.316Z,98990.78
2022-12-08T09:50:56.686Z,98989.25
2022-12-08T09:53:33.672Z,98987.44
2022-12-08T09:56:07.949Z,98982.16
2022-12-08T09:58:50.193Z,98983.91
2022-12-08T10:01:17.896Z,98981.69
2022-12-08T10:03:47.081Z,98989.38
2022-12-08T10:06:22.647Z,98984.56
2022-12-08T10:09:03.496Z,98982.78
2022-12-08T10:11:37.864Z,98974.31
2022-12-08T10:14:19.138Z,98973.88
2022-12-08T10:16:50.451Z,98970.03
2022-12-08T10:19:23.390Z,98974.75
2022-12-08T10:21:52.057Z,98972.16
2022-12-08T10:24:24.838Z,98965.97
2022-12-08T10:26:52.442Z,98967.94
2022-12-08T10:29:19.964Z,98961.28
2022-12-08T10:31:47.617Z,98956.88
2022-12-08T10:34:18.500Z,98954.34
2022-12-08T10:36:50.177Z,98962.03
2022-12-08T10:39:33.882Z,98956.63
2022-12-08T10:42:03.527Z,98955.81
2022-12-08T10:44:31.232Z,98947.81
2022-12-08T10:46:58.916Z,98943.44
2022-12-08T10:49:32.106Z,98953.59
2022-12-08T10:52:00.936Z,98953.84
2022-12-08T10:54:33.485Z,98955.66
2022-12-08T10:57:01.164Z,98952.44
2022-12-08T10:59:29.203Z,98942.22
2022-12-08T11:01:58.110Z,98939.88
2022-12-08T11:04:34.994Z,98948.41
2022-12-08T11:07:06.145Z,98944.44
2022-12-08T11:09:41.185Z,98944.22
2022-12-08T11:12:13.814Z,98943.06
2022-12-08T11:14:50.384Z,98931.56
2022-12-08T11:17:26.032Z,98933.69
2022-12-08T11:19:58.952Z,98934.56
2022-12-08T11:22:30.781Z,98929.00
2022-12-08T11:25:00.908Z,98923.97
2022-12-08T11:27:28.636Z,98926.84
2022-12-08T11:29:56.445Z,98933.81
2022-12-08T11:32:24.004Z,98926.06
2022-12-08T11:34:57.024Z,98921.28
2022-12-08T11:37:34.612Z,98925.00
2022-12-08T11:40:08.029Z,98917.19
2022-12-08T11:42:45.232Z,98930.19
2022-12-08T11:45:20.300Z,98920.63
2022-12-08T11:47:56.278Z,98916.53
2022-12-08T11:50:29.384Z,98925.19
2022-12-08T11:53:00.781Z,98912.41
2022-12-08T11:55:37.114Z,98908.59
2022-12-08T11:58:15.701Z,98910.25
2022-12-08T12:00:43.417Z,98913.66
2022-12-08T12:03:22.891Z,98910.25
2022-12-08T12:06:18.579Z,98912.47
2022-12-08T12:09:03.242Z,98903.13
2022-12-08T12:11:56.931Z,98902.53
2022-12-08T12:14:47.531Z,98897.66
2022-12-08T12:17:32.769Z,98899.06
2022-12-08T12:20:06.216Z,98895.63
2022-12-08T12:22:36.893Z,98909.66
2022-12-08T12:25:06.828Z,98898.94
2022-12-08T12:27:40.309Z,98897.34
2022-12-08T12:30:10.666Z,98900.00
2022-12-08T12:32:45.489Z,98894.53
2022-12-08T12:35:24.036Z,98890.72
2022-12-08T12:37:58.745Z,98891.84
2022-12-08T12:40:29.942Z,98888.84
2022-12-08T12:43:24.926Z,98888.91
2022-12-08T12:46:30.823Z,98896.31
2022-12-08T12:49:45.725Z,98886.97
2022-12-08T12:52:45.210Z,98884.38
2022-12-08T12:55:52.601Z,98883.94
2022-12-08T12:58:34.483Z,98886.09
2022-12-08T13:01:39.683Z,98879.22
2022-12-08T13:04:09.693Z,98878.75
2022-12-08T13:09:41.487Z,98890.03
2022-12-08T13:12:11.727Z,98884.44
2022-12-08T13:14:47.568Z,98883.81
2022-12-08T13:17:20.883Z,98888.66
2022-12-08T13:19:51.998Z,98896.63
2022-12-08T13:22:58.376Z,98896.31
2022-12-08T13:25:52.653Z,98896.75
2022-12-08T13:28:27.368Z,98899.91
2022-12-08T13:30:57.749Z,98895.94
2022-12-08T13:33:29.337Z,98895.00
2022-12-08T13:36:06.280Z,98899.66
2022-12-08T13:38:37.770Z,98903.84
2022-12-08T13:41:12.203Z,98899.72
2022-12-08T13:44:02.192Z,98902.84
2022-12-08T13:51:40.385Z,98893.03
2022-12-08T13:58:06.407Z,98898.91
2022-12-08T14:00:34.067Z,98903.66
2022-12-08T14:03:03.199Z,98902.06
2022-12-08T14:06:11.151Z,98896.78
2022-12-08T14:11:34.339Z,98889.44
2022-12-08T14:14:04.523Z,98894.50
2022-12-08T14:16:38.287Z,98886.41
2022-12-08T14:19:17.418Z,98885.78
2022-12-08T14:21:51.645Z,98896.34
2022-12-08T14:24:19.186Z,98887.59
2022-12-08T14:26:47.598Z,98895.44
2022-12-08T14:29:32.048Z,98892.63
2022-12-08T14:31:59.755Z,98888.84
2022-12-08T14:34:28.589Z,98901.13
2022-12-08T14:36:56.116Z,98899.16
2022-12-08T14:39:24.148Z,98898.16
2022-12-08T14:42:00.568Z,98904.94
2022-12-08T14:44:31.657Z,98894.53
2022-12-08T14:47:06.673Z,98889.47
2022-12-08T14:49:37.920Z,98890.41
2022-12-08T14:52:11.028Z,98891.00
2022-12-08T14:54:39.991Z,98892.91
2022-12-08T14:57:09.585Z,98889.59
2022-12-08T14:59:39.264Z,98888.50
2022-12-08T15:02:13.627Z,98897.34
2022-12-08T15:04:45.104Z,98896.59
2022-12-08T15:07:15.538Z,98898.06
2022-12-08T15:09:45.130Z,98895.53
2022-12-08T15:12:26.746Z,98888.59
2022-12-08T15:14:58.322Z,98883.72
2022-12-08T15:17:34.056Z,98890.75
2022-12-08T15:20:05.366Z,98892.78
2022-12-08T15:22:33.322Z,98895.59
2022-12-08T15:25:01.772Z,98898.31
2022-12-08T15:27:29.482Z,98894.81
2022-12-08T15:29:57.017Z,98895.00
2022-12-08T15:32:24.639Z,98892.31
2022-12-08T15:34:52.099Z,98894.31
2022-12-08T15:37:23.402Z,98896.00
2022-12-08T15:39:51.320Z,98893.78
2022-12-08T15:42:18.969Z,98895.28
2022-12-08T15:44:46.563Z,98893.47
2022-12-08T15:47:17.484Z,98886.94
2022-12-08T15:49:45.674Z,98889.66
2022-12-08T15:52:14.727Z,98885.94
2022-12-08T15:54:43.692Z,98884.94
2022-12-08T15:57:35.948Z,98884.63
2022-12-08T16:00:51.253Z,98885.06
2022-12-08T16:04:02.724Z,98892.47
2022-12-08T16:07:19.181Z,98890.88
2022-12-08T16:09:13.205Z,98882.22
2022-12-08T16:12:09.403Z,98892.78
2022-12-08T16:17:27.697Z,98883.22
2022-12-08T16:19:55.635Z,98882.41
2022-12-08T16:25:18.828Z,98888.44
2022-12-08T16:28:01.297Z,98885.78
2022-12-08T16:30:30.931Z,98885.53
2022-12-08T16:32:58.398Z,98881.91
2022-12-08T16:35:25.857Z,98884.25
2022-12-08T16:37:53.698Z,98879.53
2022-12-08T16:40:21.272Z,98884.25
2022-12-08T16:42:50.054Z,98880.41
2022-12-08T16:45:19.719Z,98873.56
2022-12-08T16:47:50.266Z,98877.19
2022-12-08T16:50:20.302Z,98878.84
2022-12-08T16:52:48.131Z,98879.91
2022-12-08T16:55:17.718Z,98883.75
2022-12-08T16:57:46.816Z,98874.13
2022-12-08T17:00:20.010Z,98876.16
2022-12-08T17:02:49.108Z,98887.38
2022-12-08T17:05:18.869Z,98886.38
2022-12-08T17:07:48.014Z,98890.81
2022-12-08T17:10:18.395Z,98888.00
2022-12-08T17:12:46.040Z,98889.84
2022-12-08T17:15:17.933Z,98886.03
2022-12-08T17:17:45.440Z,98892.88
2022-12-08T17:20:16.747Z,98893.81
2022-12-08T17:22:44.705Z,98886.44
2022-12-08T17:25:12.819Z,98889.06
2022-12-08T17:27:41.083Z,98893.44
2022-12-08T17:30:11.104Z,98889.69
2022-12-08T17:32:40.050Z,98892.94
2022-12-08T17:35:08.402Z,98885.84
2022-12-08T17:37:36.126Z,98888.50
2022-12-08T17:40:04.480Z,98876.09
2022-12-08T17:42:32.475Z,98887.47
2022-12-08T17:44:59.998Z,98883.41
2022-12-08T17:47:27.473Z,98888.72
2022-12-08T17:49:56.567Z,98888.81
2022-12-08T17:52:24.056Z,98882.03
2022-12-08T17:54:51.511Z,98890.41
2022-12-08T17:57:19.368Z,98889.38
2022-12-08T17:59:46.812Z,98888.19
2022-12-08T18:02:14.936Z,98888.31
2022-12-08T18:04:42.575Z,98888.38
2022-12-08T18:07:11.872Z,98881.94
2022-12-08T18:09:39.373Z,98887.31
2022-12-08T18:12:07.099Z,98875.91
2022-12-08T18:14:34.570Z,98883.75
2022-12-08T18:17:02.110Z,98884.47
2022-12-08T18:19:29.662Z,98882.19
2022-12-08T18:21:57.105Z,98879.38
2022-12-08T18:24:25.972Z,98888.44
2022-12-08T18:26:54.989Z,98892.78
2022-12-08T18:29:23.488Z,98884.81
2022-12-08T18:31:51.526Z,98885.00
2022-12-08T18:34:19.865Z,98879.97
2022-12-08T18:36:47.933Z,98884.16
2022-12-08T18:39:24.401Z,98891.75
2022-12-08T18:41:54.107Z,98881.25
2022-12-08T18:44:21.646Z,98887.97
2022-12-08T18:46:49.886Z,98878.97
2022-12-08T18:49:19.627Z,98888.56
2022-12-08T18:51:47.465Z,98880.78
2022-12-08T18:54:15.246Z,98884.19
2022-12-08T18:56:42.724Z,98892.25
2022-12-08T18:59:13.027Z,98882.34
2022-12-08T19:01:41.662Z,98888.50
2022-12-08T19:06:58.308Z,98879.72
2022-12-08T19:09:26.663Z,98880.56
2022-12-08T19:11:54.879Z,98883.16
2022-12-08T19:14:27.855Z,98891.94
2022-12-08T19:16:56.233Z,98887.25
2022-12-08T19:19:23.700Z,98893.66
2022-12-08T19:21:51.310Z,98896.88
2022-12-08T19:24:19.199Z,98895.97
2022-12-08T19:26:46.968Z,98896.63
2022-12-08T19:29:14.451Z,98900.72
2022-12-08T19:31:43.492Z,98897.81
2022-12-08T19:34:12.785Z,98890.94
2022-12-08T19:36:42.583Z,98891.88
2022-12-08T19:39:33.664Z,98886.56
2022-12-08T19:42:18.975Z,98898.28
2022-12-08T19:44:55.656Z,98891.19
2022-12-08T19:47:26.753Z,98893.59
2022-12-08T19:50:15.532Z,98888.44
2022-12-08T19:52:44.268Z,98881.44
2022-12-08T19:55:12.317Z,98881.19
2022-12-08T19:57:39.900Z,98885.25
2022-12-08T20:00:09.730Z,98894.09
2022-12-08T20:02:38.868Z,98896.19
2022-12-08T20:05:08.360Z,98899.53
2022-12-08T20:07:36.721Z,98894.84
2022-12-08T20:10:06.605Z,98906.25
2022-12-08T20:12:34.434Z,98894.91
2022-12-08T20:15:01.968Z,98910.69
2022-12-08T20:17:29.523Z,98899.09
2022-12-08T20:20:00.569Z,98907.22
2022-12-08T20:22:31.415Z,98906.66
2022-12-08T20:25:01.052Z,98909.38
2022-12-08T20:27:28.987Z,98905.06
2022-12-08T20:29:56.460Z,98911.03
2022-12-08T20:32:24.127Z,98906.72
2022-12-08T20:34:52.010Z,98907.66
2022-12-08T20:37:21.008Z,98907.91
2022-12-08T20:39:48.721Z,98912.31
2022-12-08T20:42:16.232Z,98916.66
2022-12-08T20:44:44.676Z,98908.63
2022-12-08T20:47:12.932Z,98916.38
2022-12-08T20:49:40.735Z,98911.34
2022-12-08T20:52:08.632Z,98915.06
2022-12-08T20:54:38.108Z,98911.75
2022-12-08T20:57:05.763Z,98912.59
2022-12-08T20:59:33.676Z,98918.75
2022-12-08T21:02:01.828Z,98915.63
2022-12-08T21:04:29.456Z,98923.53
2022-12-08T21:06:56.998Z,98914.88
2022-12-08T21:09:24.794Z,98918.50
2022-12-08T21:11:53.775Z,98918.69
2022-12-08T21:14:21.400Z,98917.09
2022-12-08T21:16:49.836Z,98919.13
2022-12-08T21:19:18.025Z,98920.41
2022-12-08T21:21:45.814Z,98923.22
2022-12-08T21:24:13.315Z,98918.84
2022-12-08T21:26:40.994Z,98922.97
2022-12-08T21:29:11.737Z,98919.72
2022-12-08T21:31:39.590Z,98922.16
2022-12-08T21:34:07.401Z,98926.53
2022-12-08T21:36:35.181Z,98921.47
2022-12-08T21:39:04.384Z,98923.09
2022-12-08T21:41:49.998Z,98924.63
2022-12-08T21:44:19.470Z,98921.38
2022-12-08T21:46:47.094Z,98919.50
2022-12-08T21:49:15.121Z,98913.56
2022-12-08T21:51:42.847Z,98921.16
2022-12-08T21:54:16.729Z,98923.72
2022-12-08T21:56:46.713Z,98917.59
2022-12-08T21:59:15.340Z,98914.22
2022-12-08T22:01:45.274Z,98919.03
2022-12-08T22:04:16.888Z,98909.06
2022-12-08T22:06:44.584Z,98916.16
2022-12-08T22:09:13.472Z,98916.13
2022-12-08T22:11:41.392Z,98918.06
2022-12-08T22:14:14.041Z,98910.34
2022-12-08T22:16:44.540Z,98920.03
2022-12-08T22:19:13.071Z,98923.41
2022-12-08T22:21:40.845Z,98919.19
2022-12-08T22:24:09.031Z,98922.66
2022-12-08T22:26:36.770Z,98918.25
2022-12-08T22:29:04.627Z,98925.13
2022-12-08T22:31:32.952Z,98915.72
2022-12-08T22:34:02.037Z,98919.19
2022-12-08T22:36:29.925Z,98919.91
2022-12-08T22:38:57.583Z,98918.03
2022-12-08T22:41:25.611Z,98920.78
2022-12-08T22:43:53.430Z,98918.13
2022-12-08T22:46:23.336Z,98911.09
2022-12-08T22:48:52.314Z,98919.03
2022-12-08T22:51:21.551Z,98914.66
2022-12-08T22:53:50.130Z,98916.31
2022-12-08T22:56:18.804Z,98913.72
2022-12-08T22:58:46.518Z,98908.63
2022-12-08T23:01:23.648Z,98910.72
2022-12-08T23:03:51.257Z,98904.59
2022-12-08T23:06:19.192Z,98902.97
2022-12-08T23:08:48.407Z,98902.06
2022-12-08T23:11:15.932Z,98906.31
2022-12-08T23:13:43.424Z,98900.28
2022-12-08T23:16:12.402Z,98907.41
2022-12-08T23:18:42.705Z,98905.59
2022-12-08T23:21:12.783Z,98905.31
2022-12-08T23:23:40.305Z,98908.13
2022-12-08T23:26:18.141Z,98908.13
2022-12-08T23:28:45.782Z,98911.38
2022-12-08T23:31:13.538Z,98912.09
2022-12-08T23:33:41.579Z,98900.72
2022-12-08T23:36:10.543Z,98905.13
2022-12-08T23:38:38.574Z,98900.41
2022-12-08T23:41:07.840Z,98895.50
2022-12-08T23:43:36.934Z,98903.22
2022-12-08T23:46:05.466Z,98908.38
2022-12-08T23:48:34.487Z,98906.66
2022-12-08T23:51:02.070Z,98906.16
2022-12-08T23:53:30.281Z,98906.16
2022-12-08T23:56:01.386Z,98902.44
2022-12-08T23:58:31.265Z,98895.13
